createdAt,value
2022-09-12T00:00:51.248Z,13.37
2022-09-12T00:03:19.267Z,13.34
2022-09-12T00:05:48.650Z,13.11
2022-09-12T00:08:16.472Z,12.88
2022-09-12T00:10:45.647Z,12.64
2022-09-12T00:13:13.529Z,12.89
2022-09-12T00:15:42.942Z,12.92
2022-09-12T00:18:16.563Z,12.66
2022-09-12T00:20:45.066Z,12.77
2022-09-12T00:23:13.414Z,12.72
2022-09-12T00:25:44.643Z,13.04
2022-09-12T00:28:13.207Z,12.62
2022-09-12T00:30:42.930Z,12.67
2022-09-12T00:33:12.793Z,12.32
2022-09-12T00:35:45.090Z,12.61
2022-09-12T00:38:13.777Z,12.83
2022-09-12T00:40:42.525Z,12.75
2022-09-12T00:43:14.782Z,12.76
2022-09-12T00:45:43.111Z,12.59
2022-09-12T00:48:30.273Z,12.60
2022-09-12T00:50:58.114Z,12.78
2022-09-12T00:53:26.779Z,12.83
2022-09-12T00:55:55.628Z,12.80
2022-09-12T00:58:26.630Z,12.72
2022-09-12T01:00:54.599Z,12.62
2022-09-12T01:03:24.853Z,12.76
2022-09-12T01:06:02.256Z,12.59
2022-09-12T01:08:30.216Z,12.16
2022-09-12T01:10:58.599Z,12.09
2022-09-12T01:13:27.010Z,11.99
2022-09-12T01:15:55.834Z,11.97
2022-09-12T01:18:32.598Z,12.15
2022-09-12T01:21:15.798Z,12.17
2022-09-12T01:24:25.113Z,12.09
2022-09-12T01:27:16.921Z,12.36
2022-09-12T01:30:05.668Z,12.31
2022-09-12T01:32:48.105Z,12.26
2022-09-12T01:35:24.265Z,12.27
2022-09-12T01:37:59.837Z,11.99
2022-09-12T01:40:33.405Z,12.23
2022-09-12T01:43:10.311Z,12.34
2022-09-12T01:45:45.065Z,12.18
2022-09-12T01:48:20.502Z,12.09
2022-09-12T01:50:53.551Z,12.10
2022-09-12T01:53:25.388Z,12.37
2022-09-12T01:55:58.037Z,12.33
2022-09-12T01:58:30.407Z,12.42
2022-09-12T02:01:03.978Z,12.33
2022-09-12T02:03:41.006Z,12.34
2022-09-12T02:06:16.178Z,12.37
2022-09-12T02:08:48.598Z,12.36
2022-09-12T02:11:16.624Z,12.26
2022-09-12T02:13:49.255Z,12.17
2022-09-12T02:16:22.831Z,12.21
2022-09-12T02:18:55.006Z,12.20
2022-09-12T02:21:25.325Z,12.03
2022-09-12T02:23:58.007Z,11.71
2022-09-12T02:26:33.622Z,12.04
2022-09-12T02:29:01.643Z,12.04
2022-09-12T02:31:34.862Z,12.17
2022-09-12T02:34:13.541Z,12.01
2022-09-12T02:36:51.079Z,12.02
2022-09-12T02:39:20.896Z,11.99
2022-09-12T02:41:49.215Z,11.98
2022-09-12T02:44:17.038Z,12.00
2022-09-12T02:46:49.155Z,11.98
2022-09-12T02:49:19.176Z,11.64
2022-09-12T02:51:47.777Z,11.67
2022-09-12T02:54:17.966Z,11.80
2022-09-12T02:56:47.049Z,11.71
2022-09-12T02:59:19.718Z,11.62
2022-09-12T03:02:02.755Z,11.60
2022-09-12T03:04:48.191Z,11.58
2022-09-12T03:07:26.162Z,11.61
2022-09-12T03:10:03.842Z,11.74
2022-09-12T03:12:48.051Z,11.69
2022-09-12T03:15:28.575Z,11.44
2022-09-12T03:18:01.243Z,11.63
2022-09-12T03:20:45.528Z,11.37
2022-09-12T03:23:25.591Z,11.49
2022-09-12T03:25:58.189Z,11.23
2022-09-12T03:28:26.114Z,11.35
2022-09-12T03:30:58.322Z,11.35
2022-09-12T03:33:27.087Z,10.98
2022-09-12T03:35:56.995Z,11.30
2022-09-12T03:38:24.982Z,11.08
2022-09-12T03:40:54.792Z,11.14
2022-09-12T03:43:22.822Z,11.26
2022-09-12T03:45:52.823Z,11.32
2022-09-12T03:48:20.728Z,11.44
2022-09-12T03:50:48.474Z,11.54
2022-09-12T03:53:17.685Z,11.47
2022-09-12T03:55:45.555Z,10.94
2022-09-12T03:58:13.385Z,11.12
2022-09-12T04:00:42.899Z,11.05
2022-09-12T04:03:11.009Z,11.11
2022-09-12T04:05:38.809Z,11.32
2022-09-12T04:08:06.601Z,11.20
2022-09-12T04:10:35.697Z,11.20
2022-09-12T04:13:03.597Z,11.21
2022-09-12T04:15:31.369Z,11.18
2022-09-12T04:18:03.660Z,10.86
2022-09-12T04:20:33.462Z,10.88
2022-09-12T04:23:01.281Z,11.25
2022-09-12T04:25:31.325Z,11.44
2022-09-12T04:28:00.528Z,11.27
2022-09-12T04:30:28.415Z,11.53
2022-09-12T04:32:56.174Z,11.49
2022-09-12T04:35:23.906Z,11.19
2022-09-12T04:37:51.723Z,11.11
2022-09-12T04:40:19.952Z,11.30
2022-09-12T04:42:47.783Z,10.97
2022-09-12T04:45:16.925Z,10.94
2022-09-12T04:47:46.458Z,11.04
2022-09-12T04:50:14.896Z,11.25
2022-09-12T04:52:42.910Z,11.19
2022-09-12T04:55:10.804Z,11.19
2022-09-12T04:57:38.571Z,11.68
2022-09-12T05:00:07.594Z,11.16
2022-09-12T05:02:36.706Z,11.67
2022-09-12T05:05:04.892Z,11.98
2022-09-12T05:07:33.078Z,11.97
2022-09-12T05:10:01.014Z,11.33
2022-09-12T05:12:28.983Z,11.90
2022-09-12T05:14:56.874Z,11.58
2022-09-12T05:17:24.791Z,11.27
2022-09-12T05:19:54.038Z,11.40
2022-09-12T05:22:22.849Z,11.10
2022-09-12T05:24:54.036Z,11.34
2022-09-12T05:27:21.847Z,11.44
2022-09-12T05:29:49.639Z,11.60
2022-09-12T05:32:17.409Z,11.70
2022-09-12T05:34:45.328Z,11.53
2022-09-12T05:37:14.505Z,11.44
2022-09-12T05:39:42.366Z,11.59
2022-09-12T05:42:10.506Z,11.23
2022-09-12T05:44:38.286Z,11.13
2022-09-12T05:47:06.423Z,11.72
2022-09-12T05:49:36.076Z,11.32
2022-09-12T05:52:04.266Z,11.26
2022-09-12T05:54:34.333Z,11.42
2022-09-12T05:57:02.126Z,11.44
2022-09-12T05:59:30.066Z,11.26
2022-09-12T06:01:57.865Z,11.46
2022-09-12T06:04:26.413Z,11.19
2022-09-12T06:06:54.332Z,11.35
2022-09-12T06:09:22.766Z,11.44
2022-09-12T06:11:51.998Z,11.52
2022-09-12T06:14:20.509Z,11.33
2022-09-12T06:16:49.891Z,11.23
2022-09-12T06:19:19.630Z,11.24
2022-09-12T06:21:48.321Z,11.21
2022-09-12T06:24:16.503Z,11.66
2022-09-12T06:26:44.488Z,11.24
2022-09-12T06:29:13.749Z,11.58
2022-09-12T06:31:44.008Z,11.74
2022-09-12T06:34:14.346Z,12.14
2022-09-12T06:36:44.445Z,12.04
2022-09-12T06:39:14.261Z,11.75
2022-09-12T06:41:44.182Z,12.35
2022-09-12T06:44:16.673Z,12.04
2022-09-12T06:46:45.353Z,12.41
2022-09-12T06:49:13.575Z,12.18
2022-09-12T06:51:43.152Z,12.17
2022-09-12T06:54:13.623Z,12.01
2022-09-12T06:56:41.488Z,12.13
2022-09-12T06:59:09.550Z,11.98
2022-09-12T07:01:40.068Z,12.46
2022-09-12T07:04:08.143Z,12.55
2022-09-12T07:06:38.661Z,12.46
2022-09-12T07:09:07.426Z,12.64
2022-09-12T07:11:37.153Z,12.95
2022-09-12T07:14:07.159Z,12.67
2022-09-12T07:16:36.596Z,12.22
2022-09-12T07:19:07.543Z,12.92
2022-09-12T07:21:39.823Z,13.72
2022-09-12T07:24:09.837Z,13.35
2022-09-12T07:26:38.189Z,13.84
2022-09-12T07:29:32.721Z,13.37
2022-09-12T07:31:54.567Z,13.34
2022-09-12T07:34:23.747Z,13.99
2022-09-12T07:36:51.519Z,14.22
2022-09-12T07:39:20.033Z,14.01
2022-09-12T07:41:47.847Z,13.52
2022-09-12T07:44:15.617Z,13.59
2022-09-12T07:46:43.521Z,14.00
2022-09-12T07:49:13.561Z,14.03
2022-09-12T07:51:43.392Z,14.17
2022-09-12T07:54:11.536Z,14.57
2022-09-12T07:56:39.692Z,14.65
2022-09-12T07:59:07.868Z,15.19
2022-09-12T08:01:36.371Z,14.86
2022-09-12T08:04:05.226Z,15.05
2022-09-12T08:06:36.084Z,15.17
2022-09-12T08:09:07.806Z,15.17
2022-09-12T08:11:37.714Z,14.72
2022-09-12T08:14:06.008Z,15.19
2022-09-12T08:16:35.084Z,14.77
2022-09-12T08:19:04.284Z,14.75
2022-09-12T08:21:33.533Z,15.15
2022-09-12T08:24:03.613Z,15.71
2022-09-12T08:26:33.872Z,15.41
2022-09-12T08:29:01.955Z,15.04
2022-09-12T08:31:31.870Z,15.33
2022-09-12T08:34:00.790Z,15.19
2022-09-12T08:36:29.686Z,15.43
2022-09-12T08:39:00.151Z,15.70
2022-09-12T08:41:35.093Z,16.43
2022-09-12T08:44:27.273Z,16.61
2022-09-12T08:47:15.172Z,16.84
2022-09-12T08:49:58.037Z,17.05
2022-09-12T08:52:30.745Z,16.75
2022-09-12T08:54:58.691Z,16.95
2022-09-12T08:57:27.842Z,17.41
2022-09-12T08:59:56.829Z,18.09
2022-09-12T09:02:56.687Z,17.19
2022-09-12T09:05:38.495Z,17.58
2022-09-12T09:08:18.792Z,17.83
2022-09-12T09:10:51.955Z,18.37
2022-09-12T09:13:52.074Z,18.41
2022-09-12T09:16:25.432Z,18.13
2022-09-12T09:18:55.825Z,18.64
2022-09-12T09:21:30.181Z,18.82
2022-09-12T09:24:04.002Z,18.84
2022-09-12T09:26:41.623Z,18.41
2022-09-12T09:29:17.773Z,19.18
2022-09-12T09:31:49.027Z,19.55
2022-09-12T09:34:20.490Z,19.49
2022-09-12T09:36:53.077Z,18.76
2022-09-12T09:39:37.670Z,19.76
2022-09-12T09:42:19.550Z,19.91
2022-09-12T09:44:49.371Z,20.29
2022-09-12T09:47:19.289Z,20.36
2022-09-12T09:49:47.574Z,20.01
2022-09-12T09:52:18.497Z,20.19
2022-09-12T09:54:52.781Z,19.91
2022-09-12T09:57:41.483Z,20.63
2022-09-12T10:00:27.192Z,20.83
2022-09-12T10:03:30.820Z,20.96
2022-09-12T10:06:01.879Z,21.16
2022-09-12T10:08:32.167Z,21.23
2022-09-12T10:11:03.630Z,21.13
2022-09-12T10:13:41.740Z,21.57
2022-09-12T10:16:22.519Z,21.76
2022-09-12T10:18:52.405Z,22.27
2022-09-12T10:21:30.827Z,21.61
2022-09-12T10:24:21.832Z,21.75
2022-09-12T10:26:56.748Z,22.03
2022-09-12T10:29:28.600Z,22.61
2022-09-12T10:34:32.454Z,22.75
2022-09-12T10:37:05.703Z,22.82
2022-09-12T10:39:36.040Z,23.02
2022-09-12T10:42:05.489Z,22.86
2022-09-12T10:44:35.447Z,23.36
2022-09-12T10:47:23.999Z,23.05
2022-09-12T10:49:51.844Z,24.06
2022-09-12T10:52:24.339Z,23.76
2022-09-12T10:54:52.453Z,23.92
2022-09-12T10:57:42.929Z,24.17
2022-09-12T11:00:15.764Z,23.66
2022-09-12T11:02:58.507Z,24.33
2022-09-12T11:05:40.157Z,24.20
2022-09-12T11:08:19.870Z,23.33
2022-09-12T11:10:57.070Z,23.61
2022-09-12T11:13:40.667Z,23.50
2022-09-12T11:16:19.971Z,23.30
2022-09-12T11:19:09.136Z,24.17
2022-09-12T11:21:58.462Z,23.88
2022-09-12T11:24:54.093Z,24.72
2022-09-12T11:27:39.666Z,24.91
2022-09-12T11:30:12.042Z,24.85
2022-09-12T11:32:56.986Z,24.99
2022-09-12T11:35:29.597Z,24.18
2022-09-12T11:38:15.963Z,24.74
2022-09-12T11:40:48.631Z,24.79
2022-09-12T11:43:26.896Z,24.83
2022-09-12T11:45:55.521Z,25.45
2022-09-12T11:48:36.543Z,25.18
2022-09-12T11:51:16.969Z,24.89
2022-09-12T11:53:45.669Z,24.84
2022-09-12T11:56:18.449Z,24.67
2022-09-12T11:58:52.787Z,25.28
2022-09-12T12:01:26.074Z,26.09
2022-09-12T12:03:55.469Z,26.07
2022-09-12T12:06:31.238Z,26.02
2022-09-12T12:08:59.654Z,25.54
2022-09-12T12:11:31.880Z,25.77
2022-09-12T12:14:03.939Z,25.19
2022-09-12T12:16:34.624Z,25.57
2022-09-12T12:19:10.006Z,25.72
2022-09-12T12:21:44.534Z,25.47
2022-09-12T12:24:18.824Z,25.18
2022-09-12T12:26:59.436Z,24.85
2022-09-12T12:29:48.154Z,25.45
2022-09-12T12:32:26.632Z,24.17
2022-09-12T12:35:38.998Z,25.01
2022-09-12T12:38:28.258Z,25.81
2022-09-12T12:41:34.881Z,25.88
2022-09-12T12:44:37.624Z,25.68
2022-09-12T12:47:20.686Z,25.38
2022-09-12T12:49:54.328Z,26.19
2022-09-12T12:52:22.608Z,27.03
2022-09-12T12:54:57.364Z,25.72
2022-09-12T12:57:50.347Z,26.88
2022-09-12T13:00:32.116Z,26.98
2022-09-12T13:03:08.543Z,26.67
2022-09-12T13:05:43.028Z,26.28
2022-09-12T13:08:28.791Z,25.60
2022-09-12T13:11:01.000Z,25.92
2022-09-12T13:13:35.606Z,26.65
2022-09-12T13:16:04.024Z,26.29
2022-09-12T13:18:44.528Z,26.59
2022-09-12T13:21:15.499Z,26.61
2022-09-12T13:23:44.303Z,26.55
2022-09-12T13:26:14.030Z,26.71
2022-09-12T13:28:41.936Z,27.14
2022-09-12T13:31:17.863Z,26.35
2022-09-12T13:33:51.323Z,26.40
2022-09-12T13:37:16.156Z,25.55
2022-09-12T13:39:49.678Z,26.36
2022-09-12T13:42:39.770Z,25.52
2022-09-12T13:45:14.245Z,26.26
2022-09-12T13:47:44.350Z,26.96
2022-09-12T13:50:20.414Z,26.26
2022-09-12T13:52:54.119Z,25.42
2022-09-12T13:55:31.423Z,24.60
2022-09-12T13:58:01.860Z,25.55
2022-09-12T14:00:32.162Z,26.56
2022-09-12T14:03:17.730Z,26.06
2022-09-12T14:05:57.411Z,26.05
2022-09-12T14:08:26.010Z,26.10
2022-09-12T14:10:54.547Z,25.49
2022-09-12T14:13:24.802Z,26.25
2022-09-12T14:15:53.728Z,25.86
2022-09-12T14:18:25.143Z,26.02
2022-09-12T14:20:57.228Z,26.46
2022-09-12T14:23:31.042Z,26.09
2022-09-12T14:26:01.399Z,26.79
2022-09-12T14:28:30.187Z,25.51
2022-09-12T14:31:05.167Z,25.97
2022-09-12T14:33:35.322Z,26.59
2022-09-12T14:36:13.218Z,25.37
2022-09-12T14:38:43.828Z,25.27
2022-09-12T14:41:14.672Z,26.02
2022-09-12T14:43:47.098Z,25.64
2022-09-12T14:46:21.416Z,26.32
2022-09-12T14:48:53.016Z,26.20
2022-09-12T14:51:26.900Z,26.41
2022-09-12T14:53:55.200Z,25.51
2022-09-12T14:56:37.890Z,25.96
2022-09-12T14:59:28.669Z,26.16
2022-09-12T15:02:29.065Z,26.69
2022-09-12T15:05:16.318Z,26.57
2022-09-12T15:07:53.714Z,25.77
2022-09-12T15:10:25.401Z,26.21
2022-09-12T15:13:14.062Z,26.76
2022-09-12T15:15:43.715Z,26.71
2022-09-12T15:18:12.081Z,26.48
2022-09-12T15:20:41.783Z,26.63
2022-09-12T15:23:18.308Z,26.52
2022-09-12T15:25:46.368Z,26.15
2022-09-12T15:28:18.884Z,26.17
2022-09-12T15:30:49.545Z,26.16
2022-09-12T15:33:17.670Z,26.02
2022-09-12T15:35:45.577Z,26.02
2022-09-12T15:38:14.713Z,26.30
2022-09-12T15:40:43.021Z,25.36
2022-09-12T15:43:13.478Z,25.69
2022-09-12T15:45:43.460Z,26.16
2022-09-12T15:48:11.512Z,25.96
2022-09-12T15:50:39.295Z,26.04
2022-09-12T15:53:07.103Z,26.06
2022-09-12T15:55:37.363Z,25.54
2022-09-12T15:58:07.236Z,26.01
2022-09-12T16:00:35.651Z,25.74
2022-09-12T16:03:04.089Z,25.95
2022-09-12T16:05:32.355Z,26.15
2022-09-12T16:08:00.187Z,25.45
2022-09-12T16:10:30.199Z,25.47
2022-09-12T16:13:00.439Z,25.73
2022-09-12T16:15:28.336Z,25.49
2022-09-12T16:17:56.221Z,25.31
2022-09-12T16:20:24.386Z,24.90
2022-09-12T16:22:53.251Z,24.91
2022-09-12T16:25:21.200Z,24.95
2022-09-12T16:27:51.480Z,24.75
2022-09-12T16:31:09.000Z,24.63
2022-09-12T16:33:39.870Z,24.77
2022-09-12T16:36:09.985Z,24.53
2022-09-12T16:38:42.240Z,24.85
2022-09-12T16:41:10.442Z,24.74
2022-09-12T16:43:38.993Z,24.01
2022-09-12T16:46:08.499Z,23.94
2022-09-12T16:48:38.921Z,24.00
2022-09-12T16:51:07.739Z,23.94
2022-09-12T16:53:37.098Z,23.77
2022-09-12T16:56:05.226Z,23.44
2022-09-12T16:58:35.631Z,23.66
2022-09-12T17:01:08.293Z,23.31
2022-09-12T17:03:37.880Z,23.40
2022-09-12T17:06:07.762Z,23.00
2022-09-12T17:08:37.178Z,23.35
2022-09-12T17:11:12.425Z,23.19
2022-09-12T17:14:10.514Z,22.80
2022-09-12T17:16:50.774Z,23.16
2022-09-12T17:19:22.062Z,23.12
2022-09-12T17:21:50.237Z,23.01
2022-09-12T17:24:18.653Z,22.94
2022-09-12T17:26:46.554Z,22.65
2022-09-12T17:29:15.139Z,22.63
2022-09-12T17:31:45.245Z,22.46
2022-09-12T17:34:14.539Z,22.33
2022-09-12T17:36:45.139Z,21.97
2022-09-12T17:39:13.618Z,22.11
2022-09-12T17:41:42.870Z,21.79
2022-09-12T17:44:12.460Z,21.69
2022-09-12T17:46:40.783Z,21.57
2022-09-12T17:49:11.715Z,21.22
2022-09-12T17:51:40.930Z,21.21
2022-09-12T17:54:12.870Z,20.98
2022-09-12T17:56:41.085Z,21.04
2022-09-12T17:59:11.307Z,20.98
2022-09-12T18:01:56.962Z,21.08
2022-09-12T18:04:24.859Z,20.98
2022-09-12T18:06:53.164Z,20.92
2022-09-12T18:09:25.061Z,20.78
2022-09-12T18:11:53.746Z,20.72
2022-09-12T18:14:22.023Z,20.60
2022-09-12T18:16:50.422Z,20.38
2022-09-12T18:19:18.604Z,20.09
2022-09-12T18:21:46.765Z,19.95
2022-09-12T18:24:14.568Z,19.76
2022-09-12T18:26:44.389Z,19.39
2022-09-12T18:29:13.461Z,19.30
2022-09-12T18:31:41.341Z,19.16
2022-09-12T18:34:12.721Z,19.01
2022-09-12T18:36:41.333Z,19.13
2022-09-12T18:39:09.560Z,18.94
2022-09-12T18:41:37.765Z,18.87
2022-09-12T18:44:07.893Z,18.84
2022-09-12T18:46:36.687Z,18.73
2022-09-12T18:49:05.549Z,18.60
2022-09-12T18:51:36.008Z,18.50
2022-09-12T18:54:06.201Z,18.51
2022-09-12T18:56:37.612Z,18.35
2022-09-12T18:59:08.214Z,18.39
2022-09-12T19:01:37.846Z,18.39
2022-09-12T19:04:06.197Z,18.42
2022-09-12T19:06:35.665Z,18.29
2022-09-12T19:09:07.514Z,18.22
2022-09-12T19:11:37.825Z,18.02
2022-09-12T19:14:08.354Z,18.13
2022-09-12T19:16:36.454Z,18.23
2022-09-12T19:19:06.308Z,18.06
2022-09-12T19:21:35.309Z,17.85
2022-09-12T19:24:05.533Z,17.75
2022-09-12T19:26:33.901Z,17.39
2022-09-12T19:29:02.971Z,17.58
2022-09-12T19:31:33.152Z,17.59
2022-09-12T19:34:02.052Z,17.29
2022-09-12T19:36:47.314Z,17.15
2022-09-12T19:39:16.514Z,17.18
2022-09-12T19:41:44.598Z,17.15
2022-09-12T19:44:12.733Z,17.11
2022-09-12T19:46:42.149Z,17.38
2022-09-12T19:49:12.212Z,17.45
2022-09-12T19:51:40.203Z,17.19
2022-09-12T19:54:08.277Z,17.35
2022-09-12T19:56:36.314Z,17.11
2022-09-12T19:59:04.265Z,17.22
2022-09-12T20:01:32.539Z,17.08
2022-09-12T20:04:02.147Z,16.96
2022-09-12T20:06:30.172Z,16.87
2022-09-12T20:08:58.845Z,16.91
2022-09-12T20:11:26.766Z,16.80
2022-09-12T20:13:55.150Z,16.89
2022-09-12T20:16:25.417Z,16.70
2022-09-12T20:18:54.438Z,16.89
2022-09-12T20:21:31.011Z,16.64
2022-09-12T20:24:02.284Z,16.66
2022-09-12T20:26:31.104Z,16.47
2022-09-12T20:28:58.905Z,16.49
2022-09-12T20:31:27.003Z,16.49
2022-09-12T20:33:55.968Z,16.45
2022-09-12T20:36:25.326Z,16.40
2022-09-12T20:38:56.587Z,16.35
2022-09-12T20:41:26.057Z,16.12
2022-09-12T20:43:55.484Z,16.22
2022-09-12T20:46:24.435Z,16.23
2022-09-12T20:48:52.727Z,16.10
2022-09-12T20:51:21.182Z,16.20
2022-09-12T20:53:54.547Z,15.90
2022-09-12T20:56:23.178Z,15.71
2022-09-12T20:58:51.785Z,15.82
2022-09-12T21:01:19.819Z,15.94
2022-09-12T21:03:47.791Z,15.81
2022-09-12T21:06:17.371Z,15.79
2022-09-12T21:08:45.994Z,15.51
2022-09-12T21:11:15.667Z,15.56
2022-09-12T21:13:43.701Z,15.47
2022-09-12T21:16:13.336Z,15.39
2022-09-12T21:18:41.839Z,15.32
2022-09-12T21:21:11.468Z,15.41
2022-09-12T21:23:39.985Z,15.12
2022-09-12T21:26:08.622Z,15.10
2022-09-12T21:28:38.060Z,15.03
2022-09-12T21:31:06.236Z,14.66
2022-09-12T21:33:34.131Z,14.77
2022-09-12T21:36:03.445Z,14.83
2022-09-12T21:38:31.573Z,14.58
2022-09-12T21:41:07.681Z,14.98
2022-09-12T21:43:37.053Z,15.02
2022-09-12T21:46:05.974Z,15.08
2022-09-12T21:48:34.634Z,15.05
2022-09-12T21:51:02.665Z,15.00
2022-09-12T21:53:30.999Z,14.51
2022-09-12T21:56:02.361Z,14.87
2022-09-12T21:58:30.301Z,14.98
2022-09-12T22:00:59.731Z,15.08
2022-09-12T22:03:27.629Z,14.99
2022-09-12T22:05:59.509Z,14.90
2022-09-12T22:08:27.872Z,15.02
2022-09-12T22:10:59.476Z,14.76
2022-09-12T22:13:27.917Z,14.82
2022-09-12T22:15:56.089Z,14.64
2022-09-12T22:18:25.371Z,14.38
2022-09-12T22:21:00.443Z,14.05
2022-09-12T22:23:45.881Z,14.38
2022-09-12T22:26:14.286Z,14.32
2022-09-12T22:28:42.953Z,14.33
2022-09-12T22:31:12.124Z,14.34
2022-09-12T22:33:41.536Z,13.90
2022-09-12T22:36:09.931Z,14.23
2022-09-12T22:38:38.097Z,14.17
2022-09-12T22:41:06.748Z,14.33
2022-09-12T22:43:35.741Z,14.47
2022-09-12T22:46:08.100Z,14.41
2022-09-12T22:48:36.450Z,14.26
2022-09-12T22:51:06.387Z,14.38
2022-09-12T22:53:34.499Z,14.43
2022-09-12T22:56:02.767Z,14.27
2022-09-12T22:58:30.618Z,14.37
2022-09-12T23:00:58.504Z,14.33
2022-09-12T23:03:26.368Z,14.36
2022-09-12T23:05:54.242Z,14.26
2022-09-12T23:08:23.519Z,14.21
2022-09-12T23:10:51.265Z,14.12
2022-09-12T23:13:19.125Z,13.89
2022-09-12T23:15:46.966Z,14.03
2022-09-12T23:18:14.801Z,14.02
2022-09-12T23:20:42.578Z,13.94
2022-09-12T23:23:10.828Z,13.81
2022-09-12T23:25:40.001Z,13.86
2022-09-12T23:28:07.826Z,14.02
2022-09-12T23:30:37.956Z,13.83
2022-09-12T23:33:05.811Z,13.99
2022-09-12T23:35:33.618Z,14.08
2022-09-12T23:38:01.380Z,13.74
2022-09-12T23:40:29.219Z,13.94
2022-09-12T23:42:58.421Z,14.07
2022-09-12T23:45:26.259Z,14.06
2022-09-12T23:47:54.149Z,14.12
2022-09-12T23:50:22.007Z,13.85
2022-09-12T23:52:49.844Z,14.04
2022-09-12T23:55:17.745Z,13.79
2022-09-12T23:57:45.558Z,13.76
